Time;durP1;ratioP1;P1;durP2;ratioP2;P2;SDS_P1;SDS_P2;PMS_P1;PMS_P2;Temp;Humidity;BMP_temperature;BMP_pressure;BME280_temperature;BME280_humidity;BME280_pressure;Samples;Min_cycle;Max_cycle;Signal;HPM_P1;HPM_P2
2021/03/24 00:00:36;;;;;;;14.73;10.50;;;6.90;99.90;;;;;;5072423;28;20209;-79
2021/03/24 00:03:02;;;;;;;14.77;8.67;;;6.80;99.90;;;;;;5072632;28;20731;-81
2021/03/24 00:05:33;;;;;;;13.53;9.30;;;6.80;99.90;;;;;;5072956;28;20214;-82
2021/03/24 00:08:00;;;;;;;12.30;9.10;;;6.90;99.90;;;;;;5073100;28;20241;-81
2021/03/24 00:10:28;;;;;;;16.30;9.23;;;6.90;99.90;;;;;;5072989;28;20203;-82
2021/03/24 00:12:57;;;;;;;12.00;8.63;;;6.90;99.90;;;;;;5072532;28;20214;-82
2021/03/24 00:15:24;;;;;;;14.33;10.10;;;6.90;99.90;;;;;;5071829;28;20727;-77
2021/03/24 00:17:51;;;;;;;14.53;10.30;;;6.90;99.90;;;;;;5072083;28;20202;-76
2021/03/24 00:20:21;;;;;;;14.57;9.07;;;6.90;99.90;;;;;;5072340;28;20202;-78
2021/03/24 00:22:47;;;;;;;13.93;9.20;;;6.90;99.90;;;;;;5072480;28;20210;-77
2021/03/24 00:25:16;;;;;;;13.83;9.63;;;6.80;99.90;;;;;;5072264;28;20206;-77
2021/03/24 00:27:43;;;;;;;12.17;9.77;;;6.80;99.90;;;;;;5072494;28;20240;-78
2021/03/24 00:30:11;;;;;;;13.73;10.33;;;6.70;99.90;;;;;;5071618;28;20218;-76
2021/03/24 00:32:38;;;;;;;13.80;9.93;;;6.70;99.90;;;;;;5071392;28;20221;-81
2021/03/24 00:35:05;;;;;;;15.93;9.80;;;6.70;99.90;;;;;;5071640;28;20283;-81
2021/03/24 00:37:32;;;;;;;18.17;11.33;;;6.70;99.90;;;;;;5072305;28;20203;-77
2021/03/24 00:39:59;;;;;;;16.93;11.53;;;6.70;99.90;;;;;;5072296;28;20210;-80
2021/03/24 00:42:27;;;;;;;13.53;10.37;;;6.70;99.90;;;;;;5071575;28;20206;-81
2021/03/24 00:44:53;;;;;;;17.10;10.20;;;6.70;99.90;;;;;;5071488;28;20279;-81
2021/03/24 00:47:20;;;;;;;12.10;9.00;;;6.70;99.90;;;;;;5071571;28;20214;-80
2021/03/24 00:49:46;;;;;;;13.67;9.77;;;6.70;99.90;;;;;;5072129;28;20206;-78
2021/03/24 00:52:12;;;;;;;16.07;11.73;;;6.70;99.90;;;;;;5071363;28;20198;-78
2021/03/24 00:54:39;;;;;;;17.37;12.60;;;6.60;99.90;;;;;;5071972;28;20234;-77
2021/03/24 00:57:07;;;;;;;20.37;11.80;;;6.60;99.90;;;;;;5071242;28;20198;-77
2021/03/24 00:59:34;;;;;;;14.20;10.63;;;6.50;99.90;;;;;;5071431;28;20233;-77
2021/03/24 01:02:01;;;;;;;16.30;11.10;;;6.50;99.90;;;;;;5071657;28;20681;-77
2021/03/24 01:04:27;;;;;;;16.33;11.87;;;6.50;99.90;;;;;;5071244;28;20218;-77
2021/03/24 01:06:54;;;;;;;16.17;12.13;;;6.40;99.90;;;;;;5071736;28;20217;-77
2021/03/24 01:09:20;;;;;;;25.13;12.87;;;6.30;99.90;;;;;;5071119;28;20213;-77
2021/03/24 01:11:47;;;;;;;26.33;13.33;;;6.30;99.90;;;;;;5071359;28;20214;-77
2021/03/24 01:14:13;;;;;;;15.47;12.70;;;6.30;99.90;;;;;;5070355;28;20226;-77
2021/03/24 01:16:41;;;;;;;18.90;12.90;;;6.20;99.90;;;;;;5071367;28;20674;-77
2021/03/24 01:19:07;;;;;;;14.33;10.73;;;6.20;99.90;;;;;;5071186;28;20580;-77
2021/03/24 01:21:34;;;;;;;18.03;11.23;;;6.10;99.90;;;;;;5070991;28;20277;-77
2021/03/24 01:24:00;;;;;;;24.07;11.00;;;6.10;99.90;;;;;;5071573;28;20252;-77
2021/03/24 01:26:27;;;;;;;13.93;10.83;;;6.10;99.90;;;;;;5071012;28;20233;-74
2021/03/24 01:28:58;;;;;;;15.73;10.57;;;6.20;99.90;;;;;;5071030;28;20210;-76
2021/03/24 01:31:26;;;;;;;14.77;8.93;;;6.10;99.90;;;;;;5070597;28;20213;-75
2021/03/24 01:33:54;;;;;;;11.67;7.23;;;6.10;99.90;;;;;;5070842;28;20639;-79
2021/03/24 01:36:21;;;;;;;12.43;8.83;;;6.10;99.90;;;;;;5070598;28;20202;-78
2021/03/24 01:38:48;;;;;;;10.70;8.77;;;6.00;99.90;;;;;;5071018;28;20217;-78
2021/03/24 01:41:16;;;;;;;16.00;9.47;;;5.90;99.90;;;;;;5070510;28;20256;-78
2021/03/24 01:43:43;;;;;;;14.73;9.33;;;5.80;99.90;;;;;;5069739;28;20259;-78
2021/03/24 01:46:35;;;;;;;13.30;9.93;;;5.60;99.90;;;;;;5070427;28;20226;-78
2021/03/24 01:49:09;;;;;;;16.57;10.80;;;5.50;99.90;;;;;;5058098;28;20580;-78
2021/03/24 01:51:38;;;;;;;13.07;9.87;;;5.50;99.90;;;;;;5070418;28;20747;-76
2021/03/24 01:54:06;;;;;;;11.80;9.53;;;5.30;99.90;;;;;;5070626;28;20198;-78
2021/03/24 01:56:34;;;;;;;11.40;9.50;;;5.30;99.90;;;;;;5070502;28;20209;-79
2021/03/24 01:59:01;;;;;;;11.73;8.80;;;5.40;99.90;;;;;;5070819;28;20209;-78
2021/03/24 02:01:28;;;;;;;13.27;10.17;;;5.50;99.90;;;;;;5070552;28;20206;-79
2021/03/24 02:03:54;;;;;;;15.37;10.27;;;5.60;99.90;;;;;;5070425;28;20201;-78
2021/03/24 02:06:27;;;;;;;11.47;9.13;;;5.60;99.90;;;;;;5070249;28;20279;-76
2021/03/24 02:09:02;;;;;;;15.90;9.43;;;5.50;99.90;;;;;;5070450;28;20206;-75
2021/03/24 02:11:34;;;;;;;14.20;9.13;;;5.60;99.90;;;;;;5070285;28;20213;-76
2021/03/24 02:14:08;;;;;;;13.93;10.03;;;5.50;99.90;;;;;;5069278;28;20198;-79
2021/03/24 02:16:39;;;;;;;17.13;10.60;;;5.50;99.90;;;;;;5056676;28;20255;-79
2021/03/24 02:19:17;;;;;;;16.13;9.07;;;5.20;99.90;;;;;;5070345;28;20202;-77
2021/03/24 02:21:45;;;;;;;13.17;9.40;;;5.20;99.90;;;;;;5070474;28;20202;-78
2021/03/24 02:24:22;;;;;;;11.80;10.40;;;5.30;99.90;;;;;;5069949;28;20206;-78
2021/03/24 02:27:03;;;;;;;15.20;10.07;;;5.20;99.90;;;;;;5070322;28;20206;-78
2021/03/24 02:29:30;;;;;;;14.13;10.57;;;5.10;99.90;;;;;;5070413;28;20206;-77
2021/03/24 02:31:59;;;;;;;11.23;9.17;;;5.20;99.90;;;;;;5070774;28;20669;-78
2021/03/24 02:34:29;;;;;;;27.50;9.90;;;5.20;99.90;;;;;;5069780;28;20226;-77
2021/03/24 02:36:57;;;;;;;15.13;8.87;;;5.20;99.90;;;;;;5070173;28;20666;-76
2021/03/24 02:39:26;;;;;;;13.67;8.60;;;5.00;99.90;;;;;;5069408;28;20570;-77
2021/03/24 02:41:55;;;;;;;13.10;9.47;;;4.90;99.90;;;;;;5069959;28;20569;-77
2021/03/24 02:44:23;;;;;;;10.33;8.90;;;5.10;99.90;;;;;;5069858;28;20214;-79
2021/03/24 02:46:51;;;;;;;10.70;8.77;;;5.10;99.90;;;;;;5070008;28;20678;-77
2021/03/24 02:49:18;;;;;;;14.10;10.07;;;5.00;99.90;;;;;;5070021;28;20673;-79
2021/03/24 02:51:45;;;;;;;12.77;9.27;;;5.00;99.90;;;;;;5069962;28;20206;-79
2021/03/24 02:54:16;;;;;;;14.70;9.53;;;5.10;99.90;;;;;;5069829;28;20217;-78
2021/03/24 02:56:42;;;;;;;12.67;7.63;;;5.10;99.90;;;;;;5073713;28;20681;-77
2021/03/24 02:59:09;;;;;;;16.20;8.90;;;5.10;99.90;;;;;;5073895;28;20209;-76
2021/03/24 03:01:43;;;;;;;16.13;9.43;;;5.10;99.90;;;;;;5074011;28;20264;-77
2021/03/24 03:04:20;;;;;;;13.17;8.10;;;5.10;99.90;;;;;;5073632;28;20202;-78
2021/03/24 03:06:48;;;;;;;9.43;8.07;;;5.10;99.90;;;;;;5073509;28;20209;-77
2021/03/24 03:09:25;;;;;;;12.30;8.50;;;5.10;99.90;;;;;;5073245;28;20206;-77
2021/03/24 03:11:58;;;;;;;11.60;8.80;;;5.00;99.90;;;;;;5073708;28;20210;-78
2021/03/24 03:14:36;;;;;;;11.67;7.33;;;4.90;99.90;;;;;;5073093;28;20226;-78
2021/03/24 03:17:08;;;;;;;14.53;7.70;;;4.90;99.90;;;;;;5073273;28;20214;-76
2021/03/24 03:19:40;;;;;;;11.23;8.37;;;4.90;99.90;;;;;;5073408;28;20666;-78
2021/03/24 03:22:13;;;;;;;12.07;8.23;;;5.00;99.90;;;;;;5073063;28;20260;-78
2021/03/24 03:24:45;;;;;;;12.20;8.77;;;4.90;99.90;;;;;;5073547;28;20214;-78
2021/03/24 03:27:14;;;;;;;11.87;8.03;;;4.90;99.90;;;;;;5072894;28;20206;-78
2021/03/24 03:29:43;;;;;;;8.60;7.60;;;4.90;99.90;;;;;;5073527;28;20210;-78
2021/03/24 03:32:16;;;;;;;12.70;9.80;;;4.80;99.90;;;;;;5072921;28;20210;-78
2021/03/24 03:34:46;;;;;;;10.37;8.67;;;4.90;99.90;;;;;;5073135;28;20218;-80
2021/03/24 03:37:14;;;;;;;11.60;8.10;;;4.80;99.90;;;;;;5073056;28;20578;-80
2021/03/24 03:39:44;;;;;;;14.60;8.63;;;4.70;99.90;;;;;;5073005;28;20202;-77
2021/03/24 03:42:11;;;;;;;11.80;8.10;;;4.60;99.90;;;;;;5072591;28;20210;-77
2021/03/24 03:44:38;;;;;;;15.07;7.87;;;4.70;99.90;;;;;;5072816;28;20666;-78
2021/03/24 03:47:09;;;;;;;11.87;7.70;;;4.70;99.90;;;;;;5072669;28;20222;-78
2021/03/24 03:49:39;;;;;;;11.60;7.97;;;4.80;99.90;;;;;;5073043;28;20251;-78
2021/03/24 03:52:41;;;;;;;9.83;7.47;;;4.90;99.90;;;;;;5072489;28;20210;-77
2021/03/24 03:55:19;;;;;;;12.90;7.27;;;4.80;99.90;;;;;;5072595;28;20218;-78
2021/03/24 03:57:52;;;;;;;13.93;8.37;;;4.80;99.90;;;;;;5072983;28;20210;-78
2021/03/24 04:00:23;;;;;;;15.03;7.80;;;4.90;99.90;;;;;;5072665;28;20221;-78
2021/03/24 04:02:56;;;;;;;11.93;9.10;;;4.90;99.90;;;;;;5072692;28;20263;-78
2021/03/24 04:05:27;;;;;;;9.80;6.63;;;4.90;99.90;;;;;;5072208;28;20210;-78
2021/03/24 04:07:58;;;;;;;14.30;7.93;;;4.80;99.90;;;;;;5071647;28;20260;-78
2021/03/24 04:10:29;;;;;;;11.13;7.87;;;4.90;99.90;;;;;;5072357;28;20217;-76
2021/03/24 04:12:56;;;;;;;18.60;8.57;;;4.90;99.90;;;;;;5072448;28;20694;-77
2021/03/24 04:15:25;;;;;;;13.20;7.97;;;4.80;99.90;;;;;;5058275;28;20320;-75
2021/03/24 04:17:58;;;;;;;8.60;7.33;;;4.90;99.90;;;;;;5072914;28;20210;-78
2021/03/24 04:20:27;;;;;;;9.30;7.00;;;4.70;99.90;;;;;;5071982;28;20206;-76
2021/03/24 04:22:56;;;;;;;9.53;7.10;;;4.70;99.90;;;;;;5072584;28;20198;-76
2021/03/24 04:25:26;;;;;;;11.50;8.17;;;4.70;99.90;;;;;;5071914;28;20230;-75
2021/03/24 04:27:54;;;;;;;11.43;7.37;;;4.80;99.90;;;;;;5072538;28;20203;-76
2021/03/24 04:30:27;;;;;;;8.77;7.17;;;4.80;99.90;;;;;;5072193;28;20229;-75
2021/03/24 04:32:54;;;;;;;12.03;7.10;;;4.70;99.90;;;;;;5072340;28;20612;-79
2021/03/24 04:35:22;;;;;;;11.13;8.00;;;4.80;99.90;;;;;;5071736;28;20230;-75
2021/03/24 04:37:54;;;;;;;9.37;8.43;;;4.70;99.90;;;;;;5072074;28;20198;-78
2021/03/24 04:40:27;;;;;;;11.00;7.87;;;4.70;99.90;;;;;;5071492;28;20292;-74
2021/03/24 04:42:58;;;;;;;10.60;7.83;;;4.60;99.90;;;;;;5071951;28;20207;-78
2021/03/24 04:45:36;;;;;;;14.87;8.37;;;4.60;99.90;;;;;;5071485;28;20202;-74
2021/03/24 04:48:06;;;;;;;11.00;7.10;;;4.50;99.90;;;;;;5071605;28;20586;-74
2021/03/24 04:50:37;;;;;;;10.30;7.10;;;4.20;99.90;;;;;;5071584;28;20275;-77
2021/03/24 04:53:07;;;;;;;11.20;8.50;;;4.00;99.90;;;;;;5070818;28;20202;-74
2021/03/24 04:55:35;;;;;;;11.37;7.80;;;4.10;99.90;;;;;;5071507;28;20241;-75
2021/03/24 04:58:04;;;;;;;9.23;7.87;;;4.20;99.90;;;;;;5071677;28;20202;-76
2021/03/24 05:00:36;;;;;;;13.20;9.67;;;4.10;99.90;;;;;;5071798;28;20214;-74
2021/03/24 05:03:09;;;;;;;14.80;8.13;;;4.10;99.90;;;;;;5071385;28;20649;-75
2021/03/24 05:05:40;;;;;;;10.13;7.97;;;4.20;99.90;;;;;;5071251;28;20221;-77
2021/03/24 05:08:15;;;;;;;14.33;7.60;;;4.20;99.90;;;;;;5071173;28;20306;-77
2021/03/24 05:10:42;;;;;;;12.13;8.13;;;4.30;99.90;;;;;;5071725;28;20266;-77
2021/03/24 05:13:21;;;;;;;12.30;7.37;;;4.20;99.90;;;;;;5071106;28;20201;-74
2021/03/24 05:15:57;;;;;;;12.13;8.13;;;4.20;99.90;;;;;;5071170;28;20225;-73
2021/03/24 05:18:24;;;;;;;9.97;8.40;;;3.90;99.90;;;;;;5070595;28;20210;-73
2021/03/24 05:20:54;;;;;;;15.27;8.80;;;4.00;99.90;;;;;;5070896;28;20739;-75
2021/03/24 05:23:24;;;;;;;12.87;8.10;;;4.00;99.90;;;;;;5071168;28;20289;-75
2021/03/24 05:25:58;;;;;;;10.60;7.93;;;4.00;99.90;;;;;;5070955;28;20229;-76
2021/03/24 05:28:31;;;;;;;12.37;8.23;;;4.00;99.90;;;;;;5070873;28;20575;-77
2021/03/24 05:31:02;;;;;;;9.73;7.90;;;4.00;99.90;;;;;;5071541;28;20202;-81
2021/03/24 05:33:32;;;;;;;10.93;6.77;;;4.00;99.90;;;;;;5071618;28;20206;-79
2021/03/24 05:36:04;;;;;;;10.03;7.30;;;4.10;99.90;;;;;;5071335;28;20309;-79
2021/03/24 05:38:35;;;;;;;9.87;7.70;;;4.10;99.90;;;;;;5071656;28;20267;-82
2021/03/24 05:41:29;;;;;;;10.90;8.00;;;4.20;99.90;;;;;;5070703;28;20205;-76
2021/03/24 05:44:30;;;;;;;11.53;7.20;;;4.10;99.90;;;;;;5071295;28;20296;-80
2021/03/24 05:47:22;;;;;;;14.03;8.20;;;4.10;99.90;;;;;;5070627;28;20214;-80
2021/03/24 05:49:56;;;;;;;18.30;8.33;;;4.10;99.90;;;;;;5070588;28;20312;-81
2021/03/24 05:52:40;;;;;;;16.70;7.80;;;4.10;99.90;;;;;;5070539;28;20260;-79
2021/03/24 05:55:25;;;;;;;14.73;8.20;;;4.00;99.90;;;;;;5057472;28;20229;-78
2021/03/24 05:58:10;;;;;;;14.50;8.57;;;4.00;99.90;;;;;;5070719;28;20218;-77
2021/03/24 06:00:42;;;;;;;16.30;10.03;;;4.00;99.90;;;;;;5070238;28;20243;-77
2021/03/24 06:03:27;;;;;;;11.50;7.93;;;4.10;99.90;;;;;;5070210;28;20202;-80
2021/03/24 06:06:39;;;;;;;17.43;9.47;;;4.00;99.90;;;;;;5047640;28;20267;-77
2021/03/24 06:09:42;;;;;;;13.57;7.87;;;3.90;99.90;;;;;;5066037;28;20271;-77
2021/03/24 06:12:37;;;;;;;13.83;7.73;;;3.80;99.90;;;;;;5070228;28;20209;-75
2021/03/24 06:15:38;;;;;;;16.20;9.43;;;3.80;99.90;;;;;;5070485;28;20708;-75
2021/03/24 06:18:18;;;;;;;10.53;7.97;;;3.80;99.90;;;;;;5069693;28;20206;-75
2021/03/24 06:20:50;;;;;;;14.63;8.60;;;3.90;99.90;;;;;;5070603;28;20198;-78
2021/03/24 06:23:44;;;;;;;15.83;8.93;;;3.90;99.90;;;;;;5069151;28;20229;-77
2021/03/24 06:26:26;;;;;;;15.77;8.90;;;4.10;99.90;;;;;;5064117;28;20198;-72
2021/03/24 06:29:00;;;;;;;17.80;10.50;;;4.30;99.90;;;;;;5069859;28;20210;-71
2021/03/24 06:32:02;;;;;;;15.37;10.47;;;4.30;99.90;;;;;;5072956;28;20206;-71
2021/03/24 06:34:53;;;;;;;18.07;11.57;;;4.40;99.90;;;;;;5055431;28;20210;-72
2021/03/24 06:37:51;;;;;;;16.60;9.63;;;4.40;99.90;;;;;;5073724;28;20206;-71
2021/03/24 06:40:28;;;;;;;16.80;9.50;;;4.60;99.90;;;;;;5074233;28;20206;-72
2021/03/24 06:43:08;;;;;;;15.83;8.43;;;4.70;99.90;;;;;;5074366;28;20202;-71
2021/03/24 06:45:58;;;;;;;25.07;9.77;;;4.80;99.90;;;;;;5074159;28;20738;-71
2021/03/24 06:49:12;;;;;;;13.67;8.00;;;4.90;99.90;;;;;;5073537;28;20213;-71
2021/03/24 06:52:22;;;;;;;20.77;9.17;;;4.90;99.90;;;;;;5018765;28;20698;-71
2021/03/24 06:55:32;;;;;;;19.87;10.27;;;5.00;99.90;;;;;;5031905;28;20258;-72
2021/03/24 06:58:27;;;;;;;12.23;8.37;;;5.20;99.90;;;;;;5073995;28;20259;-72
2021/03/24 07:01:39;;;;;;;14.13;8.63;;;5.50;99.90;;;;;;5073632;28;20209;-73
2021/03/24 07:04:42;;;;;;;16.97;9.50;;;6.00;99.90;;;;;;5041137;28;20218;-72
2021/03/24 07:07:54;;;;;;;13.90;8.47;;;6.00;99.90;;;;;;5073641;28;20202;-72
2021/03/24 07:10:36;;;;;;;11.27;7.37;;;5.90;99.90;;;;;;5062875;28;20214;-72
2021/03/24 07:13:32;;;;;;;13.73;8.40;;;6.10;99.90;;;;;;5071842;28;20625;-73
2021/03/24 07:16:11;;;;;;;18.47;9.60;;;6.20;99.90;;;;;;5061291;28;20230;-78
2021/03/24 07:18:58;;;;;;;16.77;8.17;;;6.20;99.90;;;;;;5073436;28;20206;-80
2021/03/24 07:22:00;;;;;;;16.10;8.87;;;6.30;99.90;;;;;;5073261;28;20206;-77
2021/03/24 07:24:54;;;;;;;12.30;8.33;;;6.60;99.90;;;;;;5073009;28;20209;-78
2021/03/24 07:27:56;;;;;;;16.07;8.57;;;7.00;99.90;;;;;;5072818;28;20662;-78
2021/03/24 07:30:32;;;;;;;15.53;8.07;;;7.00;99.90;;;;;;5041022;28;20232;-78
2021/03/24 07:33:09;;;;;;;19.23;8.90;;;7.10;99.90;;;;;;5071088;28;20678;-80
2021/03/24 07:35:53;;;;;;;14.07;8.07;;;7.00;99.90;;;;;;5073038;28;20229;-82
2021/03/24 07:38:55;;;;;;;10.77;7.13;;;7.10;99.90;;;;;;5069459;28;20221;-81
2021/03/24 07:41:55;;;;;;;13.03;8.67;;;7.50;99.90;;;;;;5071548;28;20494;-80
2021/03/24 07:44:46;;;;;;;13.67;8.23;;;7.50;99.90;;;;;;5072210;28;20313;-78
2021/03/24 07:47:50;;;;;;;14.33;9.13;;;7.60;99.90;;;;;;5070543;28;20677;-80
2021/03/24 07:50:29;;;;;;;13.73;7.80;;;7.80;99.90;;;;;;5070784;28;20209;-78
2021/03/24 07:53:06;;;;;;;15.80;8.27;;;7.90;99.90;;;;;;5072990;28;20206;-77
2021/03/24 07:55:40;;;;;;;13.73;9.03;;;7.90;99.90;;;;;;5070404;28;20229;-80
2021/03/24 07:58:27;;;;;;;12.83;8.33;;;7.90;99.90;;;;;;5071982;28;20198;-80
2021/03/24 08:01:02;;;;;;;12.07;7.53;;;8.10;99.90;;;;;;5072633;28;20206;-81
2021/03/24 08:03:36;;;;;;;18.13;8.37;;;8.40;99.90;;;;;;5070144;28;20578;-82
2021/03/24 08:06:17;;;;;;;12.57;8.10;;;8.80;99.90;;;;;;5070041;28;20209;-73
2021/03/24 08:09:21;;;;;;;15.03;8.37;;;8.60;99.90;;;;;;5069051;28;20194;-75
2021/03/24 08:12:00;;;;;;;13.67;8.40;;;8.80;99.90;;;;;;5064762;28;20634;-75
2021/03/24 08:15:00;;;;;;;15.83;9.10;;;8.90;99.90;;;;;;5070650;28;20202;-74
2021/03/24 08:17:39;;;;;;;15.53;8.43;;;9.20;99.90;;;;;;5070985;28;20255;-74
2021/03/24 08:20:32;;;;;;;11.30;7.73;;;9.90;99.90;;;;;;5070282;28;20592;-74
2021/03/24 08:23:29;;;;;;;17.87;7.50;;;11.40;99.90;;;;;;5070340;28;20206;-74
2021/03/24 08:26:10;;;;;;;15.90;8.17;;;11.20;99.90;;;;;;5048860;28;20217;-79
2021/03/24 08:28:47;;;;;;;13.93;8.17;;;11.70;99.90;;;;;;5069813;28;20206;-80
2021/03/24 08:31:44;;;;;;;19.73;9.43;;;12.60;99.90;;;;;;5069397;28;20704;-81
2021/03/24 08:34:22;;;;;;;16.80;8.23;;;12.90;99.90;;;;;;5069830;28;20210;-80
2021/03/24 08:37:14;;;;;;;13.63;8.30;;;11.60;99.90;;;;;;5070999;28;20214;-80
2021/03/24 08:40:07;;;;;;;15.13;7.97;;;11.60;99.90;;;;;;5069853;28;20252;-76
2021/03/24 08:42:56;;;;;;;14.37;8.70;;;12.20;99.90;;;;;;5068962;28;20198;-78
2021/03/24 08:45:27;;;;;;;12.73;8.13;;;12.00;99.90;;;;;;5065797;28;20210;-75
2021/03/24 08:47:57;;;;;;;15.73;10.00;;;11.60;99.90;;;;;;5069882;28;20206;-78
2021/03/24 08:50:29;;;;;;;11.60;7.33;;;11.50;99.90;;;;;;5071372;28;20214;-75
2021/03/24 08:53:06;;;;;;;15.87;9.10;;;11.40;99.90;;;;;;5070788;28;20205;-82
2021/03/24 08:55:49;;;;;;;15.37;8.40;;;11.50;99.90;;;;;;5071397;28;20252;-81
2021/03/24 08:58:26;;;;;;;13.77;9.00;;;11.70;99.90;;;;;;5068788;28;20210;-78
2021/03/24 09:01:29;;;;;;;14.37;8.33;;;12.20;99.90;;;;;;5071570;28;20216;-76
2021/03/24 09:04:38;;;;;;;11.37;7.50;;;15.70;99.90;;;;;;5062091;28;20217;-76
2021/03/24 09:07:18;;;;;;;10.73;8.10;;;15.10;99.90;;;;;;5059801;28;20288;-79
2021/03/24 09:09:58;;;;;;;10.93;8.00;;;14.30;99.90;;;;;;5071332;28;20210;-77
2021/03/24 09:12:28;;;;;;;10.80;7.57;;;18.00;99.90;;;;;;5071080;28;20209;-76
2021/03/24 09:15:01;;;;;;;14.27;6.80;;;21.40;99.90;;;;;;5070920;28;20198;-76
2021/03/24 09:18:06;;;;;;;9.57;7.43;;;19.50;99.90;;;;;;5071403;28;20209;-76
2021/03/24 09:20:56;;;;;;;12.43;8.57;;;17.40;99.90;;;;;;5071418;28;20646;-76
2021/03/24 09:24:04;;;;;;;12.98;8.57;;;16.50;99.90;;;;;;5071204;28;20226;-76
2021/03/24 09:27:06;;;;;;;11.32;6.82;;;18.70;99.90;;;;;;5071433;28;20205;-76
2021/03/24 09:29:45;;;;;;;11.68;7.68;;;23.20;99.90;;;;;;5071026;28;20255;-76
2021/03/24 09:32:26;;;;;;;10.50;7.95;;;24.60;99.90;;;;;;5070408;28;20214;-79
2021/03/24 09:35:07;;;;;;;21.52;8.10;;;25.60;99.90;;;;;;5071198;28;20206;-76
2021/03/24 09:37:37;;;;;;;11.18;7.38;;;26.30;99.90;;;;;;5070920;28;20203;-77
2021/03/24 09:40:08;;;;;;;14.20;7.82;;;25.60;99.90;;;;;;5070212;28;20697;-76
2021/03/24 09:42:38;;;;;;;16.85;8.55;;;25.70;99.90;;;;;;5070662;28;20202;-77
2021/03/24 09:45:15;;;;;;;12.60;8.23;;;26.10;99.90;;;;;;5070751;28;20202;-78
2021/03/24 09:47:52;;;;;;;13.20;7.18;;;25.00;99.90;;;;;;5070692;28;20221;-78
2021/03/24 09:50:28;;;;;;;13.80;7.65;;;23.70;99.90;;;;;;5070397;28;20216;-76
2021/03/24 09:52:58;;;;;;;17.58;7.72;;;20.00;99.90;;;;;;5070581;28;20202;-77
2021/03/24 09:55:30;;;;;;;12.73;8.60;;;17.80;99.90;;;;;;5070217;28;20262;-77
2021/03/24 09:58:36;;;;;;;10.45;7.68;;;19.40;99.90;;;;;;5071156;28;20257;-80
2021/03/24 10:01:20;;;;;;;16.35;9.00;;;22.30;99.90;;;;;;5061879;28;20677;-80
2021/03/24 10:03:52;;;;;;;14.50;8.13;;;23.80;99.90;;;;;;5058613;28;20617;-78
2021/03/24 10:06:26;;;;;;;12.48;8.10;;;23.60;99.90;;;;;;5056130;28;20211;-83
2021/03/24 10:09:04;;;;;;;10.85;7.57;;;23.50;99.90;;;;;;5070419;28;20218;-84
2021/03/24 10:11:40;;;;;;;9.77;7.30;;;24.60;99.90;;;;;;5068356;28;20205;-80
2021/03/24 10:14:10;;;;;;;14.15;7.72;;;24.60;99.90;;;;;;5070329;28;20205;-84
2021/03/24 10:16:41;;;;;;;17.55;8.45;;;25.20;99.90;;;;;;5070678;28;20229;-82
2021/03/24 10:19:15;;;;;;;13.40;6.57;;;25.90;99.90;;;;;;5070067;28;20255;-80
2021/03/24 10:21:48;;;;;;;10.25;6.45;;;27.10;99.90;;;;;;5070118;28;20205;-76
2021/03/24 10:24:17;;;;;;;10.13;5.93;;;25.60;99.90;;;;;;5069540;28;20201;-82
2021/03/24 10:26:52;;;;;;;9.95;6.88;;;26.60;99.90;;;;;;5070613;28;20225;-84
2021/03/24 10:29:22;;;;;;;10.35;6.85;;;26.80;99.90;;;;;;5070050;28;20267;-84
2021/03/24 10:31:54;;;;;;;9.75;6.40;;;26.40;99.90;;;;;;5070244;28;20689;-82
2021/03/24 10:34:26;;;;;;;10.10;5.45;;;26.60;99.90;;;;;;5070049;28;20260;-77
2021/03/24 10:36:58;;;;;;;12.43;6.13;;;25.50;99.90;;;;;;5070478;28;20273;-82
2021/03/24 10:39:30;;;;;;;8.40;5.13;;;19.50;99.90;;;;;;5068522;28;20198;-80
2021/03/24 10:42:06;;;;;;;12.18;5.53;;;17.80;99.90;;;;;;5061562;28;20210;-75
2021/03/24 10:44:45;;;;;;;10.32;5.80;;;17.30;99.90;;;;;;5070445;28;20206;-79
2021/03/24 10:47:22;;;;;;;9.52;5.47;;;17.00;99.90;;;;;;5070429;28;20696;-81
2021/03/24 10:50:16;;;;;;;9.80;4.13;;;16.80;99.90;;;;;;5070141;28;20205;-84
2021/03/24 10:53:00;;;;;;;10.02;5.40;;;16.60;99.90;;;;;;5067155;28;20217;-81
2021/03/24 10:55:28;;;;;;;7.60;4.68;;;16.60;99.90;;;;;;5070266;28;20225;-80
2021/03/24 10:58:05;;;;;;;7.15;4.38;;;16.60;99.90;;;;;;5069706;28;20210;-79
2021/03/24 11:00:35;;;;;;;7.00;4.13;;;16.40;99.90;;;;;;5070762;28;20210;-79
2021/03/24 11:03:13;;;;;;;17.13;5.28;;;16.50;99.90;;;;;;5068742;28;20621;-82
2021/03/24 11:05:46;;;;;;;8.27;3.97;;;16.70;99.90;;;;;;5070271;28;20202;-75
2021/03/24 11:08:26;;;;;;;8.50;5.13;;;16.60;99.90;;;;;;5068415;28;20202;-82
2021/03/24 11:10:59;;;;;;;9.95;4.90;;;16.50;99.90;;;;;;5069197;28;20213;-80
2021/03/24 11:13:31;;;;;;;14.23;5.68;;;16.60;99.90;;;;;;5069106;28;20206;-79
2021/03/24 11:16:12;;;;;;;6.78;4.60;;;16.40;99.90;;;;;;5071627;28;20240;-82
2021/03/24 11:18:42;;;;;;;5.10;4.20;;;16.70;99.90;;;;;;5074025;28;20241;-81
2021/03/24 11:21:28;;;;;;;8.45;4.65;;;17.00;99.90;;;;;;5072318;28;20202;-78
2021/03/24 11:24:06;;;;;;;8.73;4.70;;;16.90;99.90;;;;;;5073697;28;20275;-80
2021/03/24 11:26:59;;;;;;;7.13;4.57;;;16.90;99.90;;;;;;5073580;28;20206;-78
2021/03/24 11:29:27;;;;;;;9.30;5.22;;;16.70;99.90;;;;;;5072886;28;20217;-77
2021/03/24 11:32:01;;;;;;;19.55;5.63;;;16.70;99.90;;;;;;5073921;28;20210;-85
2021/03/24 11:34:38;;;;;;;6.95;5.15;;;16.80;99.90;;;;;;5073662;28;20213;-77
2021/03/24 11:37:27;;;;;;;9.05;4.93;;;16.80;99.90;;;;;;5072884;28;20241;-79
2021/03/24 11:40:03;;;;;;;11.23;5.18;;;16.80;99.90;;;;;;5062875;28;20202;-83
2021/03/24 11:42:32;;;;;;;6.57;4.95;;;16.70;99.90;;;;;;5069048;28;20213;-77
2021/03/24 11:44:59;;;;;;;8.65;5.35;;;17.00;99.90;;;;;;5073668;28;20198;-78
2021/03/24 11:47:50;;;;;;;9.73;4.80;;;17.10;99.90;;;;;;5071360;28;20583;-77
2021/03/24 11:50:25;;;;;;;9.65;4.57;;;17.30;99.90;;;;;;5066852;28;20206;-76
2021/03/24 11:52:59;;;;;;;6.68;4.47;;;17.10;99.90;;;;;;5072646;28;21056;-79
2021/03/24 11:55:48;;;;;;;3.90;3.40;;;16.90;99.90;;;;;;5066762;28;20230;-79
2021/03/24 11:58:36;;;;;;;9.32;4.22;;;17.30;99.90;;;;;;5071349;28;20214;-75
2021/03/24 12:01:09;;;;;;;10.18;4.45;;;17.20;99.90;;;;;;5068096;28;20209;-76
2021/03/24 12:03:56;;;;;;;8.68;4.53;;;17.30;99.90;;;;;;5072841;28;20206;-75
2021/03/24 12:06:34;;;;;;;5.68;3.35;;;17.60;99.90;;;;;;5071642;28;20206;-81
2021/03/24 12:09:05;;;;;;;10.07;4.15;;;17.90;99.90;;;;;;5072493;28;20248;-76
2021/03/24 12:11:33;;;;;;;10.35;4.72;;;18.00;99.90;;;;;;5071296;28;20206;-77
2021/03/24 12:14:05;;;;;;;10.02;5.25;;;17.90;99.90;;;;;;5072416;28;20237;-77
2021/03/24 12:16:51;;;;;;;5.60;3.25;;;17.80;99.90;;;;;;5072069;28;20238;-77
2021/03/24 12:19:26;;;;;;;8.25;4.03;;;17.90;99.90;;;;;;5071794;28;20210;-81
2021/03/24 12:21:55;;;;;;;8.45;4.45;;;17.90;99.90;;;;;;5071980;28;20213;-83
2021/03/24 12:24:26;;;;;;;5.40;3.63;;;17.80;99.90;;;;;;5058611;28;20301;-80
2021/03/24 12:26:53;;;;;;;7.50;3.60;;;17.80;99.90;;;;;;5071056;28;20206;-76
2021/03/24 12:29:25;;;;;;;4.43;3.40;;;17.90;99.90;;;;;;5071515;28;20210;-78
2021/03/24 12:31:55;;;;;;;5.53;2.30;;;18.00;99.90;;;;;;5070049;28;20998;-76
2021/03/24 12:34:23;;;;;;;5.03;3.30;;;18.00;99.90;;;;;;5070491;28;20214;-77
2021/03/24 12:36:53;;;;;;;9.35;3.15;;;18.30;99.90;;;;;;5070898;28;20225;-75
2021/03/24 12:39:34;;;;;;;6.13;3.05;;;18.10;99.90;;;;;;5071066;28;20202;-77
2021/03/24 12:42:19;;;;;;;8.52;3.85;;;18.30;99.90;;;;;;5071893;28;20264;-77
2021/03/24 12:44:46;;;;;;;5.93;4.20;;;18.30;99.90;;;;;;5071690;28;20657;-78
2021/03/24 12:47:31;;;;;;;7.03;3.55;;;18.20;99.90;;;;;;5071025;28;20217;-77
2021/03/24 12:50:21;;;;;;;5.63;3.67;;;18.00;99.90;;;;;;5058657;28;20202;-75
2021/03/24 12:52:54;;;;;;;6.50;4.30;;;18.20;99.90;;;;;;5066732;28;20555;-76
2021/03/24 12:55:22;;;;;;;6.90;3.38;;;18.40;99.90;;;;;;5070540;28;20202;-78
2021/03/24 12:57:58;;;;;;;4.45;3.28;;;18.10;99.90;;;;;;5070267;28;20211;-76
2021/03/24 13:00:38;;;;;;;4.30;3.17;;;18.30;99.90;;;;;;5073233;28;20247;-79
2021/03/24 13:03:39;;;;;;;6.65;3.03;;;18.40;99.90;;;;;;5067136;28;20255;-78
2021/03/24 13:06:24;;;;;;;5.00;3.00;;;18.30;99.90;;;;;;5064040;28;20202;-78
2021/03/24 13:09:00;;;;;;;4.22;3.20;;;18.60;99.90;;;;;;5070998;28;20583;-77
2021/03/24 13:11:37;;;;;;;7.40;3.25;;;18.70;99.90;;;;;;5070401;28;20208;-77
2021/03/24 13:14:24;;;;;;;7.25;2.85;;;18.80;99.90;;;;;;5071068;28;20205;-79
2021/03/24 13:16:58;;;;;;;3.72;2.45;;;18.80;99.90;;;;;;5069054;28;20225;-79
2021/03/24 13:19:30;;;;;;;6.88;3.25;;;19.00;99.90;;;;;;5072098;28;20226;-78
2021/03/24 13:22:05;;;;;;;4.22;1.92;;;18.70;99.90;;;;;;5070335;28;20202;-77
2021/03/24 13:24:59;;;;;;;5.22;2.75;;;18.70;99.90;;;;;;5070864;28;20271;-78
2021/03/24 13:27:47;;;;;;;7.22;3.17;;;18.70;99.90;;;;;;5065747;28;20206;-79
2021/03/24 13:30:23;;;;;;;4.32;2.05;;;18.90;99.90;;;;;;5064252;28;20700;-78
2021/03/24 13:32:55;;;;;;;4.97;2.70;;;19.00;99.90;;;;;;5070387;28;20202;-78